createdAt,value
2023-05-05T00:00:51.717Z,11.93
2023-05-05T00:04:33.483Z,14.70
2023-05-05T00:08:15.697Z,10.15
2023-05-05T00:11:57.541Z,11.95
2023-05-05T00:15:40.159Z,11.75
2023-05-05T00:19:21.936Z,13.25
2023-05-05T00:23:04.300Z,10.18
2023-05-05T00:26:46.156Z,15.65
2023-05-05T00:30:28.049Z,11.48
2023-05-05T00:34:10.055Z,10.63
2023-05-05T00:37:51.825Z,10.73
2023-05-05T00:41:33.586Z,10.07
2023-05-05T00:45:16.691Z,9.68
2023-05-05T00:48:59.771Z,11.65
2023-05-05T00:52:41.655Z,13.93
2023-05-05T00:56:24.691Z,8.82
2023-05-05T01:00:09.986Z,10.75
2023-05-05T01:03:52.239Z,9.43
2023-05-05T01:07:43.449Z,9.82
2023-05-05T01:11:40.146Z,9.13
2023-05-05T01:15:32.439Z,8.93
2023-05-05T01:19:35.013Z,12.18
2023-05-05T01:23:40.892Z,12.52
2023-05-05T01:27:55.575Z,12.32
2023-05-05T01:31:52.049Z,15.13
2023-05-05T01:35:39.992Z,15.13
2023-05-05T01:39:27.311Z,13.05
2023-05-05T01:43:12.383Z,16.83
2023-05-05T01:46:55.673Z,13.65
2023-05-05T01:50:38.083Z,12.10
2023-05-05T01:54:21.482Z,14.93
2023-05-05T01:58:05.886Z,13.43
2023-05-05T02:01:48.932Z,12.45
2023-05-05T02:05:33.017Z,15.25
2023-05-05T02:09:16.098Z,11.38
2023-05-05T02:13:01.730Z,12.40
2023-05-05T02:16:44.275Z,13.65
2023-05-05T02:20:28.154Z,17.85
2023-05-05T02:24:10.324Z,15.77
2023-05-05T02:27:57.801Z,19.73
2023-05-05T02:31:44.827Z,14.63
2023-05-05T02:35:36.705Z,16.17
2023-05-05T02:39:35.647Z,15.10
2023-05-05T02:43:21.058Z,17.83
2023-05-05T02:47:04.870Z,17.38
2023-05-05T02:50:46.670Z,15.57
2023-05-05T02:54:28.883Z,15.20
2023-05-05T02:58:23.563Z,14.43
2023-05-05T03:02:38.994Z,22.98
2023-05-05T03:06:22.791Z,14.05
2023-05-05T03:10:09.651Z,18.42
2023-05-05T03:14:01.129Z,17.17
2023-05-05T03:17:46.440Z,16.10
2023-05-05T03:21:28.541Z,18.35
2023-05-05T03:25:10.348Z,11.15
2023-05-05T03:28:52.141Z,18.13
2023-05-05T03:32:34.032Z,13.65
2023-05-05T03:36:15.760Z,11.38
2023-05-05T03:39:57.489Z,8.05
2023-05-05T03:43:39.424Z,9.93
2023-05-05T03:47:24.486Z,5.85
2023-05-05T03:51:06.285Z,6.43
2023-05-05T03:54:48.081Z,8.85
2023-05-05T03:58:29.860Z,7.18
2023-05-05T04:02:11.693Z,6.80
2023-05-05T04:05:53.429Z,10.88
2023-05-05T04:09:35.266Z,8.05
2023-05-05T04:13:17.100Z,14.65
2023-05-05T04:16:58.895Z,8.75
2023-05-05T04:20:40.631Z,9.63
2023-05-05T04:24:24.820Z,11.57
2023-05-05T04:28:06.620Z,13.98
2023-05-05T04:31:48.437Z,12.55
2023-05-05T04:35:30.249Z,11.90
2023-05-05T04:39:12.017Z,14.63
2023-05-05T04:42:53.765Z,10.15
2023-05-05T04:46:35.823Z,13.00
2023-05-05T04:50:17.704Z,12.80
2023-05-05T04:53:59.431Z,15.23
2023-05-05T04:57:41.218Z,13.98
2023-05-05T05:01:23.021Z,14.82
2023-05-05T05:05:05.376Z,15.73
2023-05-05T05:08:47.172Z,9.55
2023-05-05T05:12:28.884Z,15.25
2023-05-05T05:16:11.524Z,14.95
2023-05-05T05:19:55.202Z,14.85
2023-05-05T05:23:36.968Z,16.88
2023-05-05T05:27:18.749Z,17.17
2023-05-05T05:31:00.598Z,22.90
2023-05-05T05:34:42.327Z,17.33
2023-05-05T05:38:24.127Z,18.05
2023-05-05T05:42:05.869Z,13.55
2023-05-05T05:45:47.774Z,16.10
2023-05-05T05:49:29.506Z,16.00
2023-05-05T05:53:11.323Z,15.02
2023-05-05T05:56:53.027Z,12.77
2023-05-05T06:00:34.792Z,12.73
2023-05-05T06:04:16.571Z,17.38
2023-05-05T06:07:58.310Z,11.75
2023-05-05T06:11:40.174Z,14.02
2023-05-05T06:15:21.980Z,18.02
2023-05-05T06:19:05.166Z,17.42
2023-05-05T06:22:46.965Z,16.35
2023-05-05T06:26:28.914Z,13.88
2023-05-05T06:30:11.494Z,13.63
2023-05-05T06:33:53.239Z,18.98
2023-05-05T06:37:35.051Z,22.65
2023-05-05T06:41:16.947Z,13.07
2023-05-05T06:44:58.645Z,14.68
2023-05-05T06:48:40.348Z,15.38
2023-05-05T06:52:22.921Z,15.77
2023-05-05T06:56:04.979Z,17.45
2023-05-05T06:59:46.780Z,17.83
2023-05-05T07:03:28.545Z,15.07
2023-05-05T07:07:10.491Z,13.52
2023-05-05T07:10:52.236Z,11.93
2023-05-05T07:14:33.973Z,11.00
2023-05-05T07:18:16.799Z,13.32
2023-05-05T07:21:58.528Z,13.98
2023-05-05T07:25:40.272Z,10.98
2023-05-05T07:29:22.019Z,12.00
2023-05-05T07:33:04.130Z,12.20
2023-05-05T07:36:45.973Z,10.63
2023-05-05T07:40:27.707Z,13.23
2023-05-05T07:44:09.550Z,7.68
2023-05-05T07:47:51.361Z,14.20
2023-05-05T07:51:34.612Z,11.45
2023-05-05T07:55:16.851Z,10.95
2023-05-05T07:58:58.676Z,10.18
2023-05-05T08:02:41.260Z,13.73
2023-05-05T08:06:24.885Z,14.25
2023-05-05T08:10:08.860Z,10.48
2023-05-05T08:13:50.593Z,16.60
2023-05-05T08:17:54.191Z,13.38
2023-05-05T08:21:36.150Z,13.18
2023-05-05T08:25:17.931Z,11.13
2023-05-05T08:29:01.097Z,14.48
2023-05-05T08:32:42.950Z,11.23
2023-05-05T08:36:25.161Z,12.73
2023-05-05T08:40:07.607Z,10.55
2023-05-05T08:43:50.532Z,12.75
2023-05-05T08:47:32.788Z,11.35
2023-05-05T08:51:19.081Z,13.25
2023-05-05T08:55:17.697Z,16.17
2023-05-05T08:59:01.292Z,15.93
2023-05-05T09:02:44.105Z,10.55
2023-05-05T09:06:27.381Z,11.02
2023-05-05T09:10:10.322Z,9.88
2023-05-05T09:13:52.128Z,22.13
2023-05-05T09:17:33.937Z,20.65
2023-05-05T09:21:21.029Z,11.90
2023-05-05T09:25:03.722Z,18.47
2023-05-05T09:28:52.745Z,11.93
2023-05-05T09:32:51.918Z,11.30
2023-05-05T09:36:48.027Z,13.98
2023-05-05T09:40:54.071Z,10.65
2023-05-05T09:44:37.216Z,11.27
2023-05-05T09:48:28.675Z,11.38
2023-05-05T09:52:17.719Z,12.55
2023-05-05T09:56:00.915Z,9.70
2023-05-05T09:59:55.393Z,10.82
2023-05-05T10:03:52.044Z,11.55
2023-05-05T10:07:34.555Z,9.30
2023-05-05T10:11:16.326Z,14.45
2023-05-05T10:15:01.195Z,9.07
2023-05-05T10:18:46.837Z,7.18
2023-05-05T10:22:33.481Z,7.07
2023-05-05T10:26:16.901Z,5.90
2023-05-05T10:30:06.138Z,10.85
2023-05-05T10:33:56.559Z,11.13
2023-05-05T10:37:39.277Z,11.77
2023-05-05T10:41:21.561Z,7.43
2023-05-05T10:45:03.475Z,7.68
2023-05-05T10:49:04.077Z,12.15
2023-05-05T10:52:51.317Z,11.05
2023-05-05T10:56:34.920Z,11.25
2023-05-05T11:00:42.726Z,12.43
2023-05-05T11:04:24.845Z,16.10
2023-05-05T11:08:26.766Z,15.95
2023-05-05T11:12:09.332Z,11.77
2023-05-05T11:16:32.696Z,15.35
2023-05-05T11:20:14.866Z,11.38
2023-05-05T11:24:28.102Z,11.88
2023-05-05T11:28:11.145Z,16.38
2023-05-05T11:32:12.870Z,13.88
2023-05-05T11:35:54.626Z,16.92
2023-05-05T11:39:47.075Z,14.43
2023-05-05T11:43:28.872Z,15.35
2023-05-05T11:47:10.868Z,12.85
2023-05-05T11:50:53.571Z,13.70
2023-05-05T11:54:37.377Z,18.50
2023-05-05T11:58:22.169Z,12.32
2023-05-05T12:02:04.692Z,14.60
2023-05-05T12:05:48.739Z,17.88
2023-05-05T12:09:30.744Z,19.13
2023-05-05T12:13:22.059Z,13.98
2023-05-05T12:17:10.613Z,17.23
2023-05-05T12:20:52.935Z,14.98
2023-05-05T12:24:34.884Z,14.50
2023-05-05T12:28:16.684Z,16.70
2023-05-05T12:32:00.241Z,11.88
2023-05-05T12:35:42.265Z,16.00
2023-05-05T12:39:33.957Z,13.80
2023-05-05T12:43:27.077Z,13.32
2023-05-05T12:47:08.981Z,18.45
2023-05-05T12:50:50.914Z,16.08
2023-05-05T12:54:32.729Z,14.75
2023-05-05T12:58:14.462Z,12.48
2023-05-05T13:01:58.065Z,15.48
2023-05-05T13:05:41.192Z,16.08
2023-05-05T13:09:24.076Z,15.85
2023-05-05T13:13:07.797Z,15.65
2023-05-05T13:16:49.908Z,13.55
2023-05-05T13:20:31.616Z,16.58
2023-05-05T13:24:25.971Z,14.50
2023-05-05T13:28:10.694Z,22.63
2023-05-05T13:31:52.471Z,10.63
2023-05-05T13:35:34.239Z,18.17
2023-05-05T13:39:16.084Z,13.35
2023-05-05T13:42:57.867Z,13.15
2023-05-05T13:46:40.466Z,14.45
2023-05-05T13:50:22.434Z,11.75
2023-05-05T13:54:04.627Z,19.23
2023-05-05T13:57:46.505Z,46.97
2023-05-05T14:01:28.725Z,17.38
2023-05-05T14:05:10.822Z,17.50
2023-05-05T14:08:52.964Z,14.65
2023-05-05T14:12:34.776Z,18.23
2023-05-05T14:16:16.550Z,17.23
2023-05-05T14:19:58.553Z,11.95
2023-05-05T14:23:40.271Z,14.02
2023-05-05T14:27:22.014Z,12.45
2023-05-05T14:31:03.865Z,13.23
2023-05-05T14:34:46.715Z,14.15
2023-05-05T14:38:29.578Z,19.30
2023-05-05T14:42:11.396Z,10.50
2023-05-05T14:45:53.238Z,14.52
2023-05-05T14:49:35.085Z,15.38
2023-05-05T14:53:18.889Z,16.27
2023-05-05T14:57:00.666Z,16.25
2023-05-05T15:00:42.417Z,15.70
2023-05-05T15:04:24.120Z,11.20
2023-05-05T15:08:06.504Z,16.00
2023-05-05T15:11:48.312Z,17.55
2023-05-05T15:15:30.039Z,12.55
2023-05-05T15:19:11.828Z,7.47
2023-05-05T15:22:54.898Z,9.75
2023-05-05T15:26:36.734Z,13.15
2023-05-05T15:30:18.605Z,7.95
2023-05-05T15:34:00.338Z,8.07
2023-05-05T15:37:42.553Z,7.07
2023-05-05T15:41:27.119Z,6.75
2023-05-05T15:45:12.049Z,4.97
2023-05-05T15:48:53.788Z,6.95
2023-05-05T15:52:35.543Z,11.02
2023-05-05T15:56:17.402Z,7.95
2023-05-05T15:59:59.222Z,5.05
2023-05-05T16:03:41.182Z,4.75
2023-05-05T16:07:23.067Z,6.40
2023-05-05T16:11:04.881Z,10.02
2023-05-05T16:14:47.158Z,10.00
2023-05-05T16:18:29.348Z,8.30
2023-05-05T16:22:11.142Z,4.90
2023-05-05T16:25:52.864Z,7.93
2023-05-05T16:29:34.571Z,9.82
2023-05-05T16:33:16.320Z,8.02
2023-05-05T16:36:59.161Z,9.27
2023-05-05T16:40:41.035Z,8.38
2023-05-05T16:44:22.798Z,7.45
2023-05-05T16:48:06.806Z,11.27
2023-05-05T16:51:52.499Z,8.93
2023-05-05T16:55:34.285Z,7.55
2023-05-05T16:59:18.311Z,10.32
2023-05-05T17:03:00.230Z,11.73
2023-05-05T17:06:41.973Z,14.02
2023-05-05T17:10:23.870Z,8.27
2023-05-05T17:14:07.609Z,10.73
2023-05-05T17:17:50.778Z,15.98
2023-05-05T17:21:33.919Z,12.73
2023-05-05T17:25:16.322Z,14.02
2023-05-05T17:28:58.213Z,13.82
2023-05-05T17:32:40.044Z,14.63
2023-05-05T17:36:21.841Z,9.23
2023-05-05T17:40:05.228Z,15.50
2023-05-05T17:43:47.082Z,16.48
2023-05-05T17:47:30.397Z,12.52
2023-05-05T17:51:12.254Z,14.20
2023-05-05T17:54:54.008Z,15.07
2023-05-05T17:58:35.812Z,17.00
2023-05-05T18:02:19.047Z,12.48
2023-05-05T18:06:02.354Z,16.90
2023-05-05T18:09:44.105Z,17.48
2023-05-05T18:13:25.879Z,17.80
2023-05-05T18:17:07.593Z,15.30
2023-05-05T18:20:49.789Z,14.02
2023-05-05T18:24:31.802Z,19.67
2023-05-05T18:28:13.539Z,15.88
2023-05-05T18:31:55.396Z,16.00
2023-05-05T18:35:37.261Z,12.40
2023-05-05T18:39:19.188Z,15.35
2023-05-05T18:43:01.229Z,15.13
2023-05-05T18:46:46.997Z,16.80
2023-05-05T18:50:28.798Z,19.52
2023-05-05T18:54:10.803Z,14.82
2023-05-05T18:57:53.027Z,21.15
2023-05-05T19:01:34.888Z,14.15
2023-05-05T19:05:16.760Z,18.85
2023-05-05T19:08:58.556Z,19.38
2023-05-05T19:12:40.407Z,18.40
2023-05-05T19:16:22.521Z,15.57
2023-05-05T19:20:04.720Z,20.00
2023-05-05T19:23:46.524Z,19.35
2023-05-05T19:27:28.330Z,17.75
2023-05-05T19:31:10.206Z,17.50
2023-05-05T19:34:54.232Z,18.85
2023-05-05T19:38:36.582Z,19.40
2023-05-05T19:42:18.681Z,16.52
2023-05-05T19:46:00.451Z,24.33
2023-05-05T19:49:42.244Z,23.88
2023-05-05T19:53:25.170Z,21.83
2023-05-05T19:57:07.513Z,23.63
2023-05-05T20:00:49.410Z,22.20
2023-05-05T20:04:31.144Z,21.35
2023-05-05T20:08:12.848Z,20.27
2023-05-05T20:11:56.442Z,25.58
2023-05-05T20:15:38.222Z,17.33
2023-05-05T20:19:20.020Z,23.42
2023-05-05T20:23:01.995Z,20.40
2023-05-05T20:26:43.754Z,26.58
2023-05-05T20:30:25.586Z,21.92
2023-05-05T20:34:07.489Z,23.85
2023-05-05T20:37:49.340Z,21.77
2023-05-05T20:41:31.266Z,28.52
2023-05-05T20:45:13.364Z,27.17
2023-05-05T20:48:55.090Z,25.70
2023-05-05T20:52:36.935Z,22.90
2023-05-05T20:56:18.750Z,25.30
2023-05-05T21:00:00.459Z,29.48
2023-05-05T21:03:42.221Z,24.83
2023-05-05T21:07:23.951Z,23.73
2023-05-05T21:11:09.936Z,25.15
2023-05-05T21:14:52.469Z,21.98
2023-05-05T21:18:34.172Z,23.25
2023-05-05T21:22:15.904Z,28.05
2023-05-05T21:25:57.743Z,28.17
2023-05-05T21:29:39.568Z,19.25
2023-05-05T21:33:21.291Z,25.55
2023-05-05T21:37:03.468Z,28.00
2023-05-05T21:40:45.284Z,25.10
2023-05-05T21:44:28.241Z,26.63
2023-05-05T21:48:10.077Z,21.80
2023-05-05T21:51:51.818Z,26.52
2023-05-05T21:55:33.560Z,28.67
2023-05-05T21:59:16.560Z,29.00
2023-05-05T22:02:59.118Z,24.75
2023-05-05T22:06:40.957Z,26.58
2023-05-05T22:10:23.452Z,23.50
2023-05-05T22:14:05.215Z,26.73
2023-05-05T22:17:47.021Z,25.08
2023-05-05T22:21:28.774Z,28.52
2023-05-05T22:25:10.878Z,28.05
2023-05-05T22:28:52.870Z,25.75
2023-05-05T22:32:34.658Z,27.90
2023-05-05T22:36:16.527Z,26.20
2023-05-05T22:39:58.374Z,19.73
2023-05-05T22:43:40.208Z,27.55
2023-05-05T22:47:22.006Z,26.05
2023-05-05T22:51:03.849Z,27.58
2023-05-05T22:54:45.603Z,28.63
2023-05-05T22:58:27.293Z,26.80
2023-05-05T23:02:09.103Z,29.73
2023-05-05T23:05:51.088Z,26.13
2023-05-05T23:09:32.872Z,25.65
2023-05-05T23:13:14.715Z,18.90
2023-05-05T23:16:56.597Z,25.67
2023-05-05T23:20:38.367Z,24.48
2023-05-05T23:24:20.311Z,29.52
2023-05-05T23:28:02.050Z,25.42
2023-05-05T23:31:44.065Z,21.63
2023-05-05T23:35:26.303Z,23.83
2023-05-05T23:39:08.128Z,23.48
2023-05-05T23:42:49.921Z,19.25
2023-05-05T23:46:31.805Z,30.02
2023-05-05T23:50:13.631Z,29.65
2023-05-05T23:53:57.247Z,22.20
2023-05-05T23:57:39.041Z,21.83
